createdAt,value
2018-07-16T00:02:12.518Z,18.40
2018-07-16T00:04:43.386Z,18.40
2018-07-16T00:07:14.305Z,18.40
2018-07-16T00:09:45.647Z,18.30
2018-07-16T00:12:16.138Z,18.30
2018-07-16T00:14:47.046Z,18.30
2018-07-16T00:17:17.878Z,18.20
2018-07-16T00:19:48.407Z,18.20
2018-07-16T00:22:19.026Z,18.20
2018-07-16T00:24:49.785Z,18.20
2018-07-16T00:27:20.366Z,18.20
2018-07-16T00:29:51.049Z,18.10
2018-07-16T00:32:21.766Z,18.10
2018-07-16T00:34:52.612Z,18.00
2018-07-16T00:37:23.126Z,17.90
2018-07-16T00:39:54.277Z,17.80
2018-07-16T00:42:24.959Z,17.80
2018-07-16T00:44:55.778Z,17.70
2018-07-16T00:47:26.722Z,17.70
2018-07-16T00:49:57.542Z,17.80
2018-07-16T00:52:28.001Z,17.80
2018-07-16T00:54:58.787Z,17.80
2018-07-16T00:57:29.772Z,17.80
2018-07-16T01:00:00.490Z,17.80
2018-07-16T01:02:31.102Z,17.70
2018-07-16T01:05:01.699Z,17.70
2018-07-16T01:07:32.765Z,17.70
2018-07-16T01:10:03.361Z,17.60
2018-07-16T01:12:33.985Z,17.60
2018-07-16T01:15:04.585Z,17.50
2018-07-16T01:17:35.343Z,17.40
2018-07-16T01:20:06.017Z,17.40
2018-07-16T01:22:36.515Z,17.30
2018-07-16T01:25:07.566Z,17.20
2018-07-16T01:27:38.109Z,17.20
2018-07-16T01:30:09.085Z,17.20
2018-07-16T01:32:41.109Z,17.10
2018-07-16T01:35:11.729Z,17.10
2018-07-16T01:37:42.467Z,17.10
2018-07-16T01:40:13.261Z,17.00
2018-07-16T01:42:43.945Z,17.00
2018-07-16T01:45:14.630Z,16.90
2018-07-16T01:47:45.175Z,16.90
2018-07-16T01:50:15.888Z,16.80
2018-07-16T01:52:46.598Z,16.80
2018-07-16T01:55:17.680Z,16.70
2018-07-16T01:57:48.266Z,16.70
2018-07-16T02:00:19.019Z,16.60
2018-07-16T02:02:49.521Z,16.60
2018-07-16T02:05:20.169Z,16.50
2018-07-16T02:07:50.857Z,16.50
2018-07-16T02:10:21.845Z,16.40
2018-07-16T02:12:52.543Z,16.40
2018-07-16T02:15:23.223Z,16.40
2018-07-16T02:17:54.377Z,16.40
2018-07-16T02:20:25.031Z,16.40
2018-07-16T02:22:55.649Z,16.40
2018-07-16T02:25:26.522Z,16.30
2018-07-16T02:27:57.410Z,16.30
2018-07-16T02:30:28.125Z,16.30
2018-07-16T02:32:58.805Z,16.20
2018-07-16T02:35:29.601Z,16.30
2018-07-16T02:38:00.598Z,16.30
2018-07-16T02:40:31.447Z,16.20
2018-07-16T02:43:02.469Z,16.10
2018-07-16T02:45:33.274Z,16.10
2018-07-16T02:48:03.865Z,16.10
2018-07-16T02:50:34.693Z,16.10
2018-07-16T02:53:05.324Z,16.00
2018-07-16T02:55:36.627Z,16.00
2018-07-16T02:58:07.302Z,16.00
2018-07-16T03:00:37.784Z,15.90
2018-07-16T03:03:08.725Z,15.90
2018-07-16T03:05:39.423Z,15.90
2018-07-16T03:08:10.065Z,15.80
2018-07-16T03:10:40.875Z,15.80
2018-07-16T03:13:11.634Z,15.80
2018-07-16T03:15:42.249Z,15.80
2018-07-16T03:18:13.269Z,15.70
2018-07-16T03:20:43.821Z,15.70
2018-07-16T03:23:14.577Z,15.70
2018-07-16T03:25:46.829Z,15.70
2018-07-16T03:28:17.613Z,15.70
2018-07-16T03:30:48.122Z,15.60
2018-07-16T03:33:18.961Z,15.60
2018-07-16T03:35:49.489Z,15.60
2018-07-16T03:38:20.068Z,15.60
2018-07-16T03:40:50.597Z,15.60
2018-07-16T03:43:21.673Z,15.60
2018-07-16T03:45:52.280Z,15.60
2018-07-16T03:48:23.068Z,15.60
2018-07-16T03:50:53.825Z,15.60
2018-07-16T03:53:26.619Z,15.60
2018-07-16T03:55:57.339Z,15.60
2018-07-16T03:58:28.023Z,15.60
2018-07-16T04:00:58.900Z,15.60
2018-07-16T04:03:29.473Z,15.60
2018-07-16T04:06:00.269Z,15.60
2018-07-16T04:08:30.923Z,15.60
2018-07-16T04:11:01.786Z,15.60
2018-07-16T04:13:32.541Z,15.50
2018-07-16T04:16:03.214Z,15.50
2018-07-16T04:18:34.553Z,15.50
2018-07-16T04:21:05.242Z,15.50
2018-07-16T04:23:36.200Z,15.50
2018-07-16T04:26:07.118Z,15.50
2018-07-16T04:28:37.745Z,15.50
2018-07-16T04:31:08.225Z,15.50
2018-07-16T04:33:39.067Z,15.50
2018-07-16T04:36:09.726Z,15.50
2018-07-16T04:38:40.296Z,15.50
2018-07-16T04:41:11.557Z,15.50
2018-07-16T04:43:42.229Z,15.50
2018-07-16T04:48:42.874Z,15.50
2018-07-16T04:51:13.597Z,15.60
2018-07-16T04:53:44.641Z,15.60
2018-07-16T04:56:17.030Z,15.60
2018-07-16T04:58:47.559Z,15.60
2018-07-16T05:01:18.321Z,15.60
2018-07-16T05:03:49.433Z,15.60
2018-07-16T05:06:20.201Z,15.60
2018-07-16T05:08:51.103Z,15.60
2018-07-16T05:11:21.753Z,15.60
2018-07-16T05:13:52.568Z,15.70
2018-07-16T05:16:23.350Z,15.70
2018-07-16T05:18:54.049Z,15.80
2018-07-16T05:21:24.740Z,15.80
2018-07-16T05:23:55.455Z,15.90
2018-07-16T05:26:26.595Z,16.00
2018-07-16T05:28:57.289Z,16.20
2018-07-16T05:31:28.212Z,16.40
2018-07-16T05:33:59.129Z,16.70
2018-07-16T05:36:30.042Z,16.90
2018-07-16T05:39:00.778Z,17.10
2018-07-16T05:41:31.222Z,17.30
2018-07-16T05:44:02.440Z,17.50
2018-07-16T05:46:33.213Z,17.70
2018-07-16T05:49:04.034Z,17.90
2018-07-16T05:51:34.636Z,18.00
2018-07-16T05:54:05.769Z,18.30
2018-07-16T05:56:36.357Z,18.50
2018-07-16T05:59:07.333Z,18.70
2018-07-16T06:01:38.141Z,19.00
2018-07-16T06:04:09.029Z,19.20
2018-07-16T06:06:39.896Z,19.40
2018-07-16T06:09:10.936Z,19.70
2018-07-16T06:11:44.994Z,19.70
2018-07-16T06:14:15.604Z,19.90
2018-07-16T06:16:47.250Z,20.10
2018-07-16T06:19:18.354Z,20.20
2018-07-16T06:21:49.178Z,20.40
2018-07-16T06:24:19.922Z,20.60
2018-07-16T06:26:51.044Z,20.80
2018-07-16T06:29:22.245Z,21.10
2018-07-16T06:31:52.841Z,21.30
2018-07-16T06:34:24.029Z,21.50
2018-07-16T06:36:54.775Z,21.60
2018-07-16T06:39:25.823Z,21.70
2018-07-16T06:41:56.859Z,21.80
2018-07-16T06:44:28.407Z,21.70
2018-07-16T06:47:02.328Z,21.50
2018-07-16T06:49:32.758Z,21.70
2018-07-16T06:52:04.469Z,21.70
2018-07-16T06:54:35.089Z,22.00
2018-07-16T06:57:06.074Z,22.30
2018-07-16T06:59:36.730Z,22.60
2018-07-16T07:02:07.453Z,22.90
2018-07-16T07:04:38.385Z,23.10
2018-07-16T07:07:09.209Z,23.40
2018-07-16T07:09:39.889Z,23.70
2018-07-16T07:12:10.924Z,23.80
2018-07-16T07:17:12.019Z,24.40
2018-07-16T07:19:42.512Z,24.70
2018-07-16T07:22:13.303Z,24.80
2018-07-16T07:24:44.232Z,24.90
2018-07-16T07:27:15.350Z,24.70
2018-07-16T07:29:46.012Z,24.70
2018-07-16T07:32:16.810Z,25.10
2018-07-16T07:34:47.392Z,25.00
2018-07-16T07:37:18.490Z,25.20
2018-07-16T07:39:49.803Z,25.50
2018-07-16T07:42:20.463Z,25.80
2018-07-16T07:44:51.176Z,25.90
2018-07-16T07:47:21.913Z,25.90
2018-07-16T07:49:52.677Z,25.60
2018-07-16T07:52:23.519Z,25.90
2018-07-16T07:54:54.870Z,25.70
2018-07-16T07:57:26.084Z,26.10
2018-07-16T07:59:56.814Z,26.00
2018-07-16T08:02:27.877Z,26.20
2018-07-16T08:04:58.649Z,26.60
2018-07-16T08:07:29.589Z,26.80
2018-07-16T08:10:00.256Z,27.10
2018-07-16T08:12:31.330Z,27.00
2018-07-16T08:15:02.181Z,26.90
2018-07-16T08:17:33.066Z,27.10
2018-07-16T08:20:04.222Z,27.40
2018-07-16T08:22:34.822Z,27.50
2018-07-16T08:25:05.817Z,27.60
2018-07-16T08:27:37.024Z,26.70
2018-07-16T08:30:08.386Z,27.20
2018-07-16T08:32:39.441Z,27.60
2018-07-16T08:35:10.125Z,28.10
2018-07-16T08:37:41.233Z,28.40
2018-07-16T08:42:42.052Z,28.20
2018-07-16T08:45:12.812Z,28.50
2018-07-16T08:47:43.503Z,28.60
2018-07-16T08:50:14.054Z,28.90
2018-07-16T08:52:45.134Z,29.10
2018-07-16T08:55:16.038Z,29.40
2018-07-16T08:57:47.308Z,29.80
2018-07-16T09:00:18.037Z,29.40
2018-07-16T09:05:19.026Z,29.60
2018-07-16T09:07:49.953Z,29.70
2018-07-16T09:10:20.643Z,29.10
2018-07-16T09:12:51.873Z,29.30
2018-07-16T09:17:52.669Z,29.60
2018-07-16T09:20:23.359Z,28.80
2018-07-16T09:22:54.104Z,29.30
2018-07-16T09:25:24.953Z,29.50
2018-07-16T09:27:55.904Z,29.80
2018-07-16T09:30:26.841Z,29.00
2018-07-16T09:32:57.607Z,29.20
2018-07-16T09:35:28.767Z,29.20
2018-07-16T09:40:29.428Z,30.20
2018-07-16T09:43:00.115Z,30.50
2018-07-16T09:45:31.239Z,30.70
2018-07-16T09:48:01.846Z,31.00
2018-07-16T09:50:32.557Z,30.90
2018-07-16T09:55:33.282Z,30.80
2018-07-16T09:58:03.774Z,31.10
2018-07-16T10:00:39.474Z,31.60
2018-07-16T10:03:10.125Z,32.10
2018-07-16T10:05:40.869Z,32.20
2018-07-16T10:08:11.572Z,32.20
2018-07-16T10:10:42.321Z,32.10
2018-07-16T10:13:13.230Z,31.30
2018-07-16T10:15:48.996Z,31.20
2018-07-16T10:18:19.629Z,31.50
2018-07-16T10:20:50.359Z,31.00
2018-07-16T10:23:20.908Z,30.90
2018-07-16T10:25:51.668Z,30.70
2018-07-16T10:28:22.187Z,31.30
2018-07-16T10:30:53.256Z,31.90
2018-07-16T10:33:23.858Z,32.30
2018-07-16T10:38:24.985Z,30.10
2018-07-16T10:40:55.509Z,30.70
2018-07-16T10:43:26.593Z,31.20
2018-07-16T10:45:57.534Z,29.60
2018-07-16T10:48:28.934Z,30.20
2018-07-16T10:51:04.623Z,31.10
2018-07-16T10:56:10.301Z,32.20
2018-07-16T10:58:41.329Z,32.40
2018-07-16T11:01:11.986Z,32.80
2018-07-16T11:03:42.760Z,32.90
2018-07-16T11:06:20.038Z,32.80
2018-07-16T11:08:51.132Z,32.40
2018-07-16T11:11:22.655Z,31.30
2018-07-16T11:13:53.637Z,31.90
2018-07-16T11:16:24.355Z,32.20
2018-07-16T11:21:24.805Z,33.10
2018-07-16T11:23:55.412Z,33.30
2018-07-16T11:26:26.101Z,33.40
2018-07-16T11:28:57.201Z,33.60
2018-07-16T11:31:27.957Z,33.50
2018-07-16T11:33:58.661Z,33.90
2018-07-16T11:36:29.847Z,33.20
2018-07-16T11:39:00.729Z,33.60
2018-07-16T11:41:31.708Z,33.70
2018-07-16T11:44:04.711Z,31.60
2018-07-16T11:46:35.228Z,30.60
2018-07-16T11:49:05.825Z,31.20
2018-07-16T11:51:36.487Z,31.90
2018-07-16T11:54:07.213Z,32.70
2018-07-16T11:56:37.970Z,33.30
2018-07-16T11:59:09.212Z,33.30
2018-07-16T12:01:40.139Z,33.50
2018-07-16T12:04:10.898Z,33.70
2018-07-16T12:06:42.060Z,33.20
2018-07-16T12:09:12.873Z,32.90
2018-07-16T12:11:43.578Z,32.70
2018-07-16T12:14:14.365Z,32.90
2018-07-16T12:16:45.516Z,33.10
2018-07-16T12:19:16.465Z,33.60
2018-07-16T12:21:47.151Z,33.80
2018-07-16T12:26:47.991Z,34.00
2018-07-16T12:29:18.796Z,33.90
2018-07-16T12:31:49.588Z,34.10
2018-07-16T12:36:50.612Z,33.30
2018-07-16T12:39:21.132Z,32.70
2018-07-16T12:41:52.051Z,32.70
2018-07-16T12:44:23.120Z,32.80
2018-07-16T12:46:53.914Z,33.00
2018-07-16T12:49:24.961Z,33.40
2018-07-16T12:51:56.057Z,33.60
2018-07-16T12:54:26.929Z,33.80
2018-07-16T12:56:57.857Z,34.10
2018-07-16T12:59:28.761Z,34.30
2018-07-16T13:01:59.705Z,34.40
2018-07-16T13:04:30.529Z,34.30
2018-07-16T13:07:01.222Z,34.30
2018-07-16T13:09:31.933Z,34.50
2018-07-16T13:12:03.261Z,34.50
2018-07-16T13:14:34.229Z,34.40
2018-07-16T13:17:05.227Z,33.90
2018-07-16T13:19:35.981Z,34.00
2018-07-16T13:22:07.057Z,34.20
2018-07-16T13:24:37.741Z,34.50
2018-07-16T13:27:08.337Z,34.50
2018-07-16T13:29:39.073Z,34.70
2018-07-16T13:32:10.135Z,34.50
2018-07-16T13:34:40.923Z,34.50
2018-07-16T13:37:11.766Z,34.10
2018-07-16T13:39:42.200Z,33.50
2018-07-16T13:42:13.054Z,33.90
2018-07-16T13:44:43.874Z,34.20
2018-07-16T13:47:14.401Z,34.20
2018-07-16T13:49:45.547Z,34.20
2018-07-16T13:52:16.369Z,34.30
2018-07-16T13:54:47.193Z,34.20
2018-07-16T13:57:17.948Z,33.40
2018-07-16T13:59:49.086Z,33.50
2018-07-16T14:02:19.867Z,33.80
2018-07-16T14:04:50.551Z,33.40
2018-07-16T14:07:21.085Z,33.00
2018-07-16T14:09:51.618Z,31.90
2018-07-16T14:12:22.408Z,30.90
2018-07-16T14:14:53.665Z,30.80
2018-07-16T14:17:24.426Z,30.40
2018-07-16T14:19:55.328Z,30.50
2018-07-16T14:24:56.261Z,30.60
2018-07-16T14:27:27.068Z,31.20
2018-07-16T14:29:59.392Z,32.20
2018-07-16T14:32:30.037Z,32.80
2018-07-16T14:37:30.777Z,33.40
2018-07-16T14:40:02.144Z,33.70
2018-07-16T14:42:33.102Z,34.10
2018-07-16T14:45:04.458Z,33.90
2018-07-16T14:47:35.205Z,33.10
2018-07-16T14:50:05.825Z,32.80
2018-07-16T14:52:36.889Z,33.10
2018-07-16T14:55:07.726Z,33.30
2018-07-16T14:57:38.629Z,33.50
2018-07-16T15:00:09.193Z,33.10
2018-07-16T15:02:39.936Z,32.80
2018-07-16T15:05:10.360Z,32.10
2018-07-16T15:07:41.230Z,32.70
2018-07-16T15:12:41.984Z,33.40
2018-07-16T15:15:13.103Z,33.30
2018-07-16T15:17:43.669Z,33.40
2018-07-16T15:20:14.388Z,33.40
2018-07-16T15:25:15.042Z,33.70
2018-07-16T15:27:45.601Z,33.80
2018-07-16T15:32:46.733Z,33.70
2018-07-16T15:35:17.325Z,33.70
2018-07-16T15:37:48.138Z,33.80
2018-07-16T15:40:18.833Z,33.90
2018-07-16T15:42:49.987Z,33.60
2018-07-16T15:45:21.128Z,33.70
2018-07-16T15:47:51.868Z,33.80
2018-07-16T15:50:22.501Z,33.90
2018-07-16T15:55:22.845Z,33.50
2018-07-16T15:57:53.248Z,33.40
2018-07-16T16:00:24.390Z,33.40
2018-07-16T16:02:54.768Z,33.50
2018-07-16T16:05:25.522Z,33.60
2018-07-16T16:07:56.333Z,33.60
2018-07-16T16:10:26.868Z,33.50
2018-07-16T16:12:57.168Z,33.50
2018-07-16T16:15:27.813Z,33.70
2018-07-16T16:17:58.365Z,33.60
2018-07-16T16:20:28.809Z,33.60
2018-07-16T16:23:02.509Z,33.70
2018-07-16T16:25:33.457Z,33.70
2018-07-16T16:28:04.104Z,33.70
2018-07-16T16:30:35.335Z,33.40
2018-07-16T16:33:06.308Z,33.30
2018-07-16T16:35:37.245Z,33.10
2018-07-16T16:38:08.377Z,33.10
2018-07-16T16:40:39.018Z,33.20
2018-07-16T16:43:10.036Z,33.20
2018-07-16T16:45:41.027Z,33.10
2018-07-16T16:48:11.773Z,32.90
2018-07-16T16:50:42.489Z,32.40
2018-07-16T16:53:13.374Z,32.50
2018-07-16T16:55:44.201Z,32.30
2018-07-16T16:58:14.738Z,32.00
2018-07-16T17:00:45.034Z,31.90
2018-07-16T17:05:46.709Z,31.80
2018-07-16T17:08:17.405Z,31.90
2018-07-16T17:10:48.129Z,31.90
2018-07-16T17:13:19.233Z,31.90
2018-07-16T17:15:51.837Z,31.90
2018-07-16T17:20:56.206Z,31.70
2018-07-16T17:23:28.507Z,31.70
2018-07-16T17:28:33.181Z,31.20
2018-07-16T17:31:04.335Z,31.10
2018-07-16T17:33:34.981Z,31.10
2018-07-16T17:38:36.069Z,30.80
2018-07-16T17:41:06.825Z,30.80
2018-07-16T17:43:37.478Z,30.70
2018-07-16T17:46:08.796Z,30.50
2018-07-16T17:48:39.643Z,30.30
2018-07-16T17:51:10.408Z,30.10
2018-07-16T17:53:41.784Z,29.90
2018-07-16T17:56:12.491Z,29.90
2018-07-16T17:58:43.423Z,29.90
2018-07-16T18:01:14.236Z,29.60
2018-07-16T18:03:44.885Z,29.30
2018-07-16T18:06:15.701Z,29.30
2018-07-16T18:08:46.220Z,29.10
2018-07-16T18:11:16.725Z,29.00
2018-07-16T18:13:47.497Z,28.80
2018-07-16T18:16:18.605Z,28.70
2018-07-16T18:18:49.368Z,28.70
2018-07-16T18:21:20.008Z,28.60
2018-07-16T18:23:50.773Z,28.60
2018-07-16T18:26:21.894Z,28.40
2018-07-16T18:28:52.824Z,28.40
2018-07-16T18:31:24.224Z,28.40
2018-07-16T18:33:54.725Z,28.30
2018-07-16T18:36:25.917Z,28.20
2018-07-16T18:38:56.735Z,28.10
2018-07-16T18:41:27.593Z,28.00
2018-07-16T18:43:58.722Z,27.90
2018-07-16T18:46:30.153Z,27.80
2018-07-16T18:49:01.150Z,27.70
2018-07-16T18:51:32.167Z,27.60
2018-07-16T18:54:02.930Z,27.60
2018-07-16T18:56:33.661Z,27.50
2018-07-16T18:59:06.286Z,27.40
2018-07-16T19:01:37.211Z,27.30
2018-07-16T19:04:08.274Z,27.30
2018-07-16T19:06:41.188Z,27.20
2018-07-16T19:09:12.170Z,27.10
2018-07-16T19:11:42.915Z,27.00
2018-07-16T19:14:13.822Z,26.90
2018-07-16T19:16:46.712Z,26.90
2018-07-16T19:19:17.687Z,26.80
2018-07-16T19:21:48.468Z,26.60
2018-07-16T19:24:19.721Z,26.50
2018-07-16T19:26:50.810Z,26.30
2018-07-16T19:29:21.485Z,26.20
2018-07-16T19:31:52.453Z,26.10
2018-07-16T19:34:23.375Z,25.90
2018-07-16T19:36:54.149Z,25.80
2018-07-16T19:39:24.862Z,25.60
2018-07-16T19:41:55.530Z,25.60
2018-07-16T19:44:26.521Z,25.50
2018-07-16T19:46:57.413Z,25.40
2018-07-16T19:49:27.993Z,25.30
2018-07-16T19:51:58.754Z,25.20
2018-07-16T19:54:29.607Z,25.20
2018-07-16T19:57:00.341Z,25.10
2018-07-16T19:59:30.920Z,25.00
2018-07-16T20:04:32.237Z,24.70
2018-07-16T20:07:02.902Z,24.60
2018-07-16T20:09:33.573Z,24.50
2018-07-16T20:12:04.311Z,24.50
2018-07-16T20:14:35.505Z,24.40
2018-07-16T20:17:06.058Z,24.40
2018-07-16T20:22:07.233Z,24.20
2018-07-16T20:24:37.761Z,24.20
2018-07-16T20:27:08.626Z,24.10
2018-07-16T20:29:39.282Z,24.10
2018-07-16T20:32:10.388Z,24.00
2018-07-16T20:34:41.494Z,23.90
2018-07-16T20:37:12.286Z,23.80
2018-07-16T20:39:44.086Z,23.70
2018-07-16T20:42:14.933Z,23.60
2018-07-16T20:44:45.549Z,23.60
2018-07-16T20:47:16.230Z,23.50
2018-07-16T20:49:46.947Z,23.50
2018-07-16T20:52:17.688Z,23.50
2018-07-16T20:54:48.420Z,23.50
2018-07-16T20:57:19.165Z,23.40
2018-07-16T20:59:49.873Z,23.30
2018-07-16T21:02:20.843Z,23.30
2018-07-16T21:04:51.606Z,23.20
2018-07-16T21:07:22.386Z,23.20
2018-07-16T21:09:53.043Z,23.10
2018-07-16T21:12:23.660Z,22.90
2018-07-16T21:14:54.904Z,22.80
2018-07-16T21:17:25.698Z,22.80
2018-07-16T21:19:56.374Z,22.70
2018-07-16T21:22:27.313Z,22.60
2018-07-16T21:24:57.925Z,22.50
2018-07-16T21:27:28.617Z,22.50
2018-07-16T21:29:59.685Z,22.50
2018-07-16T21:32:30.913Z,22.40
2018-07-16T21:35:02.026Z,22.40
2018-07-16T21:37:32.803Z,22.30
2018-07-16T21:40:03.675Z,22.30
2018-07-16T21:42:34.476Z,22.30
2018-07-16T21:45:05.311Z,22.30
2018-07-16T21:47:36.508Z,22.30
2018-07-16T21:50:07.337Z,22.30
2018-07-16T21:52:37.986Z,22.10
2018-07-16T21:55:09.149Z,21.90
2018-07-16T21:57:39.698Z,21.80
2018-07-16T22:00:22.455Z,21.70
2018-07-16T22:02:53.213Z,21.70
2018-07-16T22:05:25.317Z,21.60
2018-07-16T22:07:56.393Z,21.50
2018-07-16T22:10:27.685Z,21.50
2018-07-16T22:12:59.211Z,21.50
2018-07-16T22:15:30.492Z,21.60
2018-07-16T22:18:01.323Z,21.50
2018-07-16T22:20:32.445Z,21.40
2018-07-16T22:23:03.185Z,21.40
2018-07-16T22:25:33.927Z,21.40
2018-07-16T22:28:04.534Z,21.40
2018-07-16T22:30:36.427Z,21.40
2018-07-16T22:33:07.465Z,21.30
2018-07-16T22:35:38.149Z,21.30
2018-07-16T22:38:08.881Z,21.20
2018-07-16T22:40:39.866Z,21.20
2018-07-16T22:43:10.626Z,21.10
2018-07-16T22:45:53.319Z,21.10
2018-07-16T22:48:26.631Z,21.10
2018-07-16T22:51:01.197Z,21.10
2018-07-16T22:53:32.180Z,21.00
2018-07-16T22:56:03.038Z,20.90
2018-07-16T22:58:33.914Z,20.80
2018-07-16T23:01:04.734Z,20.70
2018-07-16T23:03:35.858Z,20.60
2018-07-16T23:06:06.584Z,20.50
2018-07-16T23:08:37.332Z,20.50
2018-07-16T23:13:38.780Z,20.30
2018-07-16T23:16:09.485Z,20.10
2018-07-16T23:18:40.389Z,20.10
2018-07-16T23:21:11.009Z,20.10
2018-07-16T23:23:43.130Z,20.10
2018-07-16T23:26:13.793Z,20.10
2018-07-16T23:28:44.355Z,20.20
2018-07-16T23:31:15.101Z,20.20
2018-07-16T23:33:46.500Z,20.20
2018-07-16T23:36:17.080Z,20.20
2018-07-16T23:38:47.745Z,20.20
2018-07-16T23:41:18.657Z,20.20
2018-07-16T23:43:55.380Z,20.20
2018-07-16T23:46:25.901Z,20.10
2018-07-16T23:48:56.494Z,20.10
2018-07-16T23:54:04.057Z,20.00
2018-07-16T23:56:34.817Z,20.00
2018-07-16T23:59:05.595Z,20.00
